福岡空港の過去48時間の天気

福岡空港 (Fukuoka)

現在時刻: 4/27 14:03 JST (4/27 05:03 UTC) 以下の時間は現地時間です。

過去48時間のMETAR気象情報
時間 風向 風速(m/s) 視程 気温(℃) 湿度(%) 気圧(hPa) 天気現象
27 13:30 北西 6 10km以上 22 38 1012
27 13:00 西北西 4 10km以上 21 49 1012
27 12:30 西 6 10km以上 21 49 1012
27 12:00 北西 6 10km以上 21 49 1012
27 11:30 西北西 5 10km以上 21 46 1013
27 11:00 北西 6 10km以上 21 38 1013
27 10:30 西 4 10km以上 20 49 1013
27 10:00 西北西 4 10km以上 20 46 1013
27 09:30 不定 2 10km以上 19 49 1013
27 09:00 不定 1 10km以上 17 59 1013
27 08:30 南南東 2 10km以上 16 72 1013
27 08:00 2 10km以上 15 77 1013
27 07:30 南東 2 10km以上 14 77 1013
27 07:00 南南東 3 10km以上 14 82 1012
27 06:30 2 10km以上 14 82 1012
27 06:00 南南東 2 10km以上 13 88 1012
27 05:30 南南東 3 10km以上 13 88 1012
27 05:00 南南東 3 10km以上 12 94 1012
27 04:30 南東 2 10km以上 12 88 1012
27 04:00 東南東 2 10km以上 13 88 1012
27 03:30 東南東 1 10km以上 13 88 1012
27 03:00 静穏 0 10km以上 13 88 1012
27 02:30 不定 1 10km以上 13 88 1012
27 02:00 2 10km以上 13 88 1012
27 01:30 不定 1 10km以上 13 88 1012
27 01:00 1 10km以上 14 82 1012
27 00:30 不定 1 10km以上 14 82 1012
27 00:00 不定 1 10km以上 14 82 1012
26 23:30 不定 1 10km以上 14 82 1013
26 23:00 南南東 1 10km以上 14 82 1013
26 22:30 2 10km以上 15 77 1013
26 22:00 不定 1 10km以上 15 77 1013
26 21:30 不定 1 10km以上 16 72 1013
26 21:00 北北西 2 10km以上 16 72 1013
26 20:30 北西 2 10km以上 16 72 1012
26 20:00 北西 2 10km以上 16 68 1012
26 19:30 北北西 2 10km以上 16 68 1012
26 19:00 北西 3 10km以上 16 72 1012
26 18:30 不定 2 10km以上 17 63 1012
26 18:00 西北西 2 10km以上 17 68 1012
26 17:30 西北西 2 10km以上 17 63 1012
26 17:00 北西 3 10km以上 17 68 1012
26 16:30 西北西 3 10km以上 17 63 1012
26 16:00 北西 4 10km以上 17 68 1012
26 15:30 北西 4 10km以上 18 60 1012
26 15:00 北北西 4 10km以上 18 60 1012
26 14:30 北北西 5 10km以上 18 64 1012
26 14:00 北西 5 10km以上 19 60 1013
26 13:30 北西 5 10km以上 17 63 1013
26 13:00 北西 5 10km以上 18 56 1013
26 12:30 西北西 5 10km以上 17 63 1013
26 12:00 北西 5 10km以上 17 63 1013
26 11:30 西 5 10km以上 16 63 1014
26 11:00 西北西 4 10km以上 17 59 1014
26 10:30 西 4 10km以上 16 63 1014
26 10:00 北西 3 10km以上 17 59 1015
26 09:30 西北西 2 10km以上 16 63 1015
26 09:00 2 10km以上 14 63 1015
26 08:30 2 10km以上 14 67 1015
26 08:00 北北西 2 10km以上 13 72 1015
26 07:30 北西 2 10km以上 11 82 1015
26 07:00 静穏 0 10km以上 10 87 1014
26 06:30 北西 1 10km以上 9 87 1014
26 06:00 不定 1 10km以上 9 87 1014
26 05:30 不定 1 10km以上 9 87 1014
26 05:00 不定 1 10km以上 9 87 1013
26 04:30 北北西 1 10km以上 9 87 1013
26 04:00 不定 1 10km以上 9 87 1013
26 03:30 不定 1 10km以上 9 87 1013
26 03:00 北北西 2 10km以上 10 82 1013
26 02:30 不定 1 10km以上 10 87 1013
26 02:00 東北東 1 10km以上 9 87 1013
26 01:30 静穏 0 10km以上 9 87 1013
26 01:00 静穏 0 10km以上 10 87 1013
26 00:30 不定 1 10km以上 10 87 1013
26 00:00 不定 1 10km以上 10 87 1013
25 23:30 北東 1 10km以上 10 87 1013
25 23:00 北北西 1 10km以上 11 82 1014
25 22:30 北北西 2 10km以上 11 82 1014
25 22:00 北北西 2 10km以上 12 71 1014
25 21:30 2 10km以上 13 72 1014
25 21:00 3 10km以上 13 72 1013
25 20:30 3 10km以上 13 72 1013
25 20:00 4 10km以上 13 72 1012
25 19:30 4 10km以上 14 67 1012
25 19:00 4 10km以上 14 72 1012
25 18:30 4 10km以上 14 72 1011
25 18:00 北北東 5 10km以上 15 72 1011
25 17:30 北北東 6 10km以上 15 72 1011
25 17:00 北北東 5 10km以上 15 72 1011
25 16:30 北北東 4 10km以上 15 72 1011
25 16:00 4 10km以上 15 72 1011 弱いしゅう雨
25 15:30 5 10km以上 14 82 1011 弱いしゅう雨
25 15:00 北北東 5 10km以上 14 82 1011 弱いしゅう雨
25 14:30 4 10km以上 14 82 1011 弱いしゅう雨
RJFF 270430Z 31011KT 9999 FEW040 SCT/// 22/07 Q1012
RJFF 270400Z 29007KT 250V340 9999 FEW040 SCT/// 21/10 Q1012 RMK 1CU040 A2990
RJFF 270330Z 28011KT 250V330 9999 FEW030 21/10 Q1012 RMK 1CU030 A2991
RJFF 270300Z 32011KT 9999 FEW030 21/10 Q1012 RMK 1CU030 A2991
RJFF 270230Z 30010KT 260V340 9999 FEW030 21/09 Q1013 RMK 1CU030 A2992
RJFF 270200Z 31011KT 9999 FEW030 SCT110 21/06 Q1013 RMK 1CU030 4AC110 A2992
RJFF 270130Z 27008KT 240V310 9999 FEW030 SCT110 20/09 Q1013 RMK 1CU030 4AC110 A2992
RJFF 270100Z 29008KT 250V330 9999 FEW025 SCT110 20/08 Q1013 RMK 1CU025 3AC110 A2992
RJFF 270030Z VRB04KT 9999 FEW025 SCT/// 19/08 Q1013 RMK 1CU025 A2992
RJFF 270000Z VRB02KT CAVOK 17/09 Q1013 RMK A2992
RJFF 262330Z 16003KT 130V210 CAVOK 16/11 Q1013 RMK A2991
RJFF 262300Z 17003KT 140V210 CAVOK 15/11 Q1013 RMK A2992
RJFF 262230Z 14004KT 120V180 CAVOK 14/10 Q1013 RMK A2991
RJFF 262200Z 16005KT CAVOK 14/11 Q1012 RMK A2990
RJFF 262130Z 19004KT CAVOK 14/11 Q1012 RMK A2990
RJFF 262100Z 15004KT CAVOK 13/11 Q1012 RMK A2990
RJFF 262030Z AUTO 16005KT 9999 NSC 13/11 Q1012 RMK A2990
RJFF 262000Z AUTO 15006KT 9999 NSC 12/11 Q1012 RMK A2988
RJFF 261930Z AUTO 14004KT 9999 NSC 12/10 Q1012 RMK A2990
RJFF 261900Z AUTO 12004KT 9999 NSC 13/11 Q1012 RMK A2989
RJFF 261830Z AUTO 11002KT 9999 NSC 13/11 Q1012 RMK A2990
RJFF 261800Z AUTO 00000KT 9999 NSC 13/11 Q1012 RMK A2990
RJFF 261730Z AUTO VRB02KT 9999 NCD 13/11 Q1012 RMK A2990
RJFF 261700Z AUTO 10003KT 9999 NCD 13/11 Q1012
RJFF 261630Z AUTO VRB02KT 9999 NSC 13/11 Q1012 RMK A2990
RJFF 261600Z AUTO 01002KT 9999 NSC 14/11 Q1012 RMK A2991
RJFF 261530Z AUTO VRB02KT 9999 NCD 14/11 Q1012 RMK A2991
RJFF 261500Z AUTO VRB01KT 9999 NSC 14/11 Q1012 RMK A2990
RJFF 261430Z AUTO VRB01KT 9999 NSC 14/11 Q1013 RMK A2991
RJFF 261400Z AUTO 16001KT 9999 NSC 14/11 Q1013 RMK A2991
RJFF 261330Z 08003KT CAVOK 15/11 Q1013 RMK A2991
RJFF 261300Z VRB02KT CAVOK 15/11 Q1013 RMK A2992
RJFF 261230Z VRB01KT CAVOK 16/11 Q1013 RMK A2992
RJFF 261200Z 34004KT 310V020 CAVOK 16/11 Q1013 RMK A2992
RJFF 261130Z 31004KT CAVOK 16/11 Q1012 RMK A2991
RJFF 261100Z 32003KT 270V050 CAVOK 16/10 Q1012 RMK A2990
RJFF 261030Z 34004KT 310V030 CAVOK 16/10 Q1012 RMK A2989
RJFF 261000Z 31006KT CAVOK 16/11 Q1012 RMK A2989
RJFF 260930Z VRB03KT CAVOK 17/10 Q1012 RMK A2989
RJFF 260900Z 30003KT 260V340 CAVOK 17/11 Q1012 RMK A2989
RJFF 260830Z 30004KT 260V330 CAVOK 17/10 Q1012 RMK A2990
RJFF 260800Z 31005KT CAVOK 17/11 Q1012 RMK A2990
RJFF 260730Z 29006KT 240V340 CAVOK 17/10 Q1012 RMK A2989
RJFF 260700Z 31008KT 270V360 CAVOK 17/11 Q1012 RMK A2989
RJFF 260630Z 32008KT CAVOK 18/10 Q1012 RMK A2990
RJFF 260600Z 33008KT CAVOK 18/10 Q1012 RMK A2990
RJFF 260530Z 33009KT CAVOK 18/11 Q1012 RMK A2990
RJFF 260500Z 31010KT CAVOK 19/11 Q1013 RMK A2991
RJFF 260430Z 31009KT CAVOK 17/10 Q1013 RMK A2992
RJFF 260400Z 31009KT 260V340 CAVOK 18/09 Q1013 RMK A2992
RJFF 260330Z 30009KT CAVOK 17/10 Q1013 RMK A2993
RJFF 260300Z 32010KT CAVOK 17/10 Q1013 RMK A2994
RJFF 260230Z 28010KT CAVOK 16/09 Q1014 RMK A2995
RJFF 260200Z 30008KT CAVOK 17/09 Q1014 RMK A2996
RJFF 260130Z 28008KT 250V320 CAVOK 16/09 Q1014 RMK A2996
RJFF 260100Z 31006KT 250V030 CAVOK 17/09 Q1015 RMK A2997
RJFF 260030Z 29004KT 260V350 CAVOK 16/09 Q1015 RMK A2997
RJFF 260000Z 35003KT 260V060 CAVOK 14/07 Q1015 RMK A2997
RJFF 252330Z 35003KT 280V070 9999 FEW015 BKN/// 14/08 Q1015
RJFF 252300Z 34004KT 310V020 9999 FEW010 BKN/// 13/08 Q1015
RJFF 252230Z 31003KT 9999 FEW010 BKN/// 11/08 Q1015
RJFF 252200Z 00000KT 9999 FEW020 BKN/// 10/08 Q1014
RJFF 252130Z 32002KT 9999 FEW020 BKN/// 09/07 Q1014
RJFF 252100Z VRB01KT 9999 FEW020 BKN/// 09/07 Q1014 RMK 1CU020 A2994
RJFF 252030Z AUTO VRB01KT 9999 NSC 09/07 Q1014 RMK A2994
RJFF 252000Z AUTO VRB02KT 9999 NSC 09/07 Q1013 RMK A2994
RJFF 251930Z AUTO 34002KT 9999 NSC 09/07 Q1013 RMK A2994
RJFF 251900Z AUTO VRB01KT 9999 NCD 09/07 Q1013 RMK A2993
RJFF 251830Z AUTO VRB01KT 9999 NSC 09/07 Q1013 RMK A2993
RJFF 251800Z AUTO 33003KT 9999 NCD 10/07 Q1013 RMK A2993
RJFF 251730Z AUTO VRB01KT 9999 NCD 10/08 Q1013 RMK A2992
RJFF 251700Z AUTO 06002KT 9999 NCD 09/07 Q1013 RMK A2992
RJFF 251630Z AUTO 00000KT 9999 NCD 09/07 Q1013 RMK A2992
RJFF 251600Z AUTO 00000KT 9999 NCD 10/08 Q1013 RMK A2992
RJFF 251530Z AUTO VRB01KT 9999 NCD 10/08 Q1013 RMK A2993
RJFF 251500Z AUTO VRB01KT 9999 NCD 10/08 Q1013 RMK A2994
RJFF 251430Z AUTO 05002KT 9999 NCD 10/08 Q1013 RMK A2994
RJFF 251400Z AUTO 34002KT 9999 NCD 11/08 Q1014 RMK A2994
RJFF 251330Z 34003KT 9999 FEW030 11/08 Q1014 RMK 1CU030 A2995
RJFF 251300Z 34004KT 9999 FEW030 12/07 Q1014 RMK 1CU030 A2995
RJFF 251230Z 36004KT 330V070 9999 FEW030 13/08 Q1014 RMK 1CU030 A2995
RJFF 251200Z 36006KT 330V040 9999 FEW030 13/08 Q1013 RMK 1CU030 A2994
RJFF 251130Z 36006KT 330V050 9999 FEW030 13/08 Q1013 RMK 1CU030 A2992
RJFF 251100Z 36007KT 320V050 9999 FEW020 SCT030 13/08 Q1012 RMK 1CU020 3CU030 A2991
RJFF 251030Z 01008KT 9999 FEW020 SCT030 14/08 Q1012 RMK 1CU020 3CU030 A2990
RJFF 251000Z 01008KT 330V040 9999 FEW020 SCT030 BKN/// 14/09 Q1012 RMK 1CU020 3CU030 A2989
RJFF 250930Z 36007KT 330V080 9999 FEW020 BKN/// 14/09 Q1011
RJFF 250900Z 02009KT 9999 FEW010 SCT025 BKN/// 15/10 Q1011
RJFF 250830Z 02011KT 350V050 9999 FEW008 SCT020 BKN030 15/10 Q1011 RMK 1ST008 4CU020 6CU030 A2987
RJFF 250800Z 02009KT 350V070 9999 FEW005 SCT020 BKN030 15/10 Q1011 RMK 1ST005 4CU020 6CU030 A2986
RJFF 250730Z 02008KT 320V080 9999 FEW009 SCT020 BKN030 15/10 Q1011 RMK 1ST009 3CU020 6CU030 A2986
RJFF 250700Z 01008KT 340V060 9999 -SHRA FEW009 SCT015 BKN020 15/10 Q1011 RMK 1ST009 3CU015 6CU020 A2986
RJFF 250630Z 01009KT 330V040 9999 -SHRA FEW009 SCT015 BKN020 14/11 Q1011
RJFF 250600Z 02009KT 350V060 9999 -SHRA FEW009 SCT015 BKN020 14/11 Q1011
RJFF 250530Z 01007KT 9999 -SHRA FEW010 SCT015 BKN020 14/11 Q1011